createdAt,value
2017-12-25T00:01:12.036Z,6.43
2017-12-25T00:03:46.354Z,7.10
2017-12-25T00:06:14.670Z,7.40
2017-12-25T00:08:43.684Z,7.62
2017-12-25T00:11:11.894Z,7.10
2017-12-25T00:13:40.098Z,7.18
2017-12-25T00:16:08.237Z,7.15
2017-12-25T00:18:36.408Z,6.97
2017-12-25T00:21:04.672Z,7.80
2017-12-25T00:23:32.852Z,6.35
2017-12-25T00:26:02.472Z,7.03
2017-12-25T00:28:30.678Z,8.15
2017-12-25T00:30:59.596Z,5.90
2017-12-25T00:33:28.603Z,6.12
2017-12-25T00:35:56.754Z,6.97
2017-12-25T00:38:25.038Z,7.50
2017-12-25T00:40:54.036Z,8.30
2017-12-25T00:43:22.354Z,7.30
2017-12-25T00:45:50.598Z,7.57
2017-12-25T00:48:18.756Z,7.10
2017-12-25T00:50:46.900Z,7.40
2017-12-25T00:53:23.069Z,7.03
2017-12-25T00:55:52.759Z,7.97
2017-12-25T00:58:26.315Z,6.00
2017-12-25T01:00:57.155Z,7.62
2017-12-25T01:03:33.354Z,7.05
2017-12-25T01:06:01.586Z,7.45
2017-12-25T01:08:29.821Z,7.12
2017-12-25T01:10:57.976Z,6.32
2017-12-25T01:13:26.195Z,6.57
2017-12-25T01:15:55.362Z,6.12
2017-12-25T01:18:23.526Z,7.00
2017-12-25T01:20:51.693Z,6.62
2017-12-25T01:23:21.972Z,7.28
2017-12-25T01:25:50.127Z,7.03
2017-12-25T01:28:18.285Z,6.82
2017-12-25T01:30:46.495Z,7.20
2017-12-25T01:33:17.716Z,6.45
2017-12-25T01:35:45.893Z,9.07
2017-12-25T01:38:16.159Z,7.07
2017-12-25T01:40:44.302Z,7.62
2017-12-25T01:43:12.472Z,7.15
2017-12-25T01:45:40.615Z,6.90
2017-12-25T01:48:08.776Z,7.53
2017-12-25T01:50:36.938Z,6.93
2017-12-25T01:53:05.109Z,6.65
2017-12-25T01:55:35.131Z,7.22
2017-12-25T01:58:19.354Z,7.80
2017-12-25T02:00:54.966Z,7.80
2017-12-25T02:03:23.259Z,7.72
2017-12-25T02:08:47.477Z,6.80
2017-12-25T02:11:15.700Z,7.78
2017-12-25T02:13:43.848Z,7.60
2017-12-25T02:16:12.017Z,6.65
2017-12-25T02:18:40.930Z,8.25
2017-12-25T02:21:09.093Z,8.80
2017-12-25T02:23:41.423Z,6.72
2017-12-25T02:26:09.675Z,7.30
2017-12-25T02:28:38.600Z,6.97
2017-12-25T02:31:07.346Z,6.80
2017-12-25T02:33:37.405Z,8.25
2017-12-25T02:36:05.574Z,7.68
2017-12-25T02:38:34.107Z,6.62
2017-12-25T02:41:02.956Z,7.07
2017-12-25T02:43:31.110Z,7.18
2017-12-25T02:45:59.285Z,7.82
2017-12-25T02:48:28.063Z,7.12
2017-12-25T02:50:56.226Z,7.85
2017-12-25T02:53:24.414Z,9.57
2017-12-25T02:55:52.588Z,7.65
2017-12-25T02:58:21.501Z,8.10
2017-12-25T03:00:49.685Z,6.68
2017-12-25T03:03:17.927Z,7.93
2017-12-25T03:05:46.124Z,7.90
2017-12-25T03:08:14.269Z,6.95
2017-12-25T03:10:43.281Z,6.45
2017-12-25T03:13:11.462Z,7.95
2017-12-25T03:15:39.854Z,7.70
2017-12-25T03:18:08.005Z,7.97
2017-12-25T03:20:36.181Z,7.50
2017-12-25T03:23:04.333Z,6.22
2017-12-25T03:25:32.484Z,6.87
2017-12-25T03:28:00.648Z,7.53
2017-12-25T03:30:28.856Z,6.87
2017-12-25T03:32:57.011Z,7.00
2017-12-25T03:35:25.168Z,7.15
2017-12-25T03:37:53.321Z,6.12
2017-12-25T03:40:21.482Z,7.65
2017-12-25T03:42:49.634Z,7.97
2017-12-25T03:45:17.790Z,7.20
2017-12-25T03:47:45.978Z,7.75
2017-12-25T03:50:14.950Z,9.53
2017-12-25T03:52:43.097Z,10.40
2017-12-25T03:55:13.740Z,10.02
2017-12-25T03:57:41.905Z,9.90
2017-12-25T04:00:10.097Z,10.38
2017-12-25T04:02:38.269Z,10.55
2017-12-25T04:05:06.489Z,10.43
2017-12-25T04:07:37.230Z,9.15
2017-12-25T04:10:05.388Z,8.70
2017-12-25T04:12:33.590Z,9.45
2017-12-25T04:15:03.045Z,7.97
2017-12-25T04:17:31.253Z,8.90
2017-12-25T04:19:59.983Z,8.77
2017-12-25T04:22:30.023Z,10.30
2017-12-25T04:25:00.495Z,8.95
2017-12-25T04:27:28.914Z,10.00
2017-12-25T04:29:57.126Z,10.30
2017-12-25T04:32:26.083Z,9.18
2017-12-25T04:34:57.541Z,9.45
2017-12-25T04:37:30.275Z,11.18
2017-12-25T04:39:58.864Z,8.68
2017-12-25T04:42:27.084Z,8.73
2017-12-25T04:44:55.906Z,12.45
2017-12-25T04:47:24.731Z,11.27
2017-12-25T04:49:52.873Z,11.32
2017-12-25T04:52:21.909Z,11.20
2017-12-25T04:54:50.087Z,9.43
2017-12-25T04:57:18.749Z,8.57
2017-12-25T04:59:49.124Z,9.55
2017-12-25T05:02:20.458Z,8.55
2017-12-25T05:04:49.035Z,8.18
2017-12-25T05:07:17.250Z,7.50
2017-12-25T05:09:46.419Z,7.30
2017-12-25T05:12:15.214Z,8.80
2017-12-25T05:14:44.580Z,8.98
2017-12-25T05:17:14.218Z,7.25
2017-12-25T05:19:42.454Z,7.55
2017-12-25T05:22:11.395Z,7.43
2017-12-25T05:24:41.352Z,6.95
2017-12-25T05:27:09.511Z,7.78
2017-12-25T05:29:37.663Z,6.65
2017-12-25T05:32:06.071Z,8.27
2017-12-25T05:34:38.256Z,7.62
2017-12-25T05:37:07.957Z,9.15
2017-12-25T05:39:36.262Z,6.95
2017-12-25T05:42:05.330Z,8.27
2017-12-25T05:44:34.389Z,7.18
2017-12-25T05:47:04.150Z,7.60
2017-12-25T05:49:33.287Z,7.65
2017-12-25T05:52:02.334Z,7.50
2017-12-25T05:54:30.723Z,7.90
2017-12-25T05:56:59.247Z,6.60
2017-12-25T05:59:27.455Z,7.30
2017-12-25T06:01:57.245Z,8.02
2017-12-25T06:04:27.422Z,7.90
2017-12-25T06:06:55.715Z,7.80
2017-12-25T06:09:23.882Z,7.60
2017-12-25T06:11:54.354Z,8.57
2017-12-25T06:14:24.337Z,8.48
2017-12-25T06:16:53.722Z,8.07
2017-12-25T06:19:22.663Z,7.80
2017-12-25T06:21:52.012Z,9.13
2017-12-25T06:24:26.382Z,8.50
2017-12-25T06:26:55.464Z,8.00
2017-12-25T06:29:24.741Z,6.87
2017-12-25T06:31:52.947Z,9.10
2017-12-25T06:36:58.181Z,7.32
2017-12-25T06:39:26.759Z,6.90
2017-12-25T06:41:54.972Z,7.53
2017-12-25T06:44:28.459Z,8.15
2017-12-25T06:46:56.682Z,7.60
2017-12-25T06:49:25.469Z,7.57
2017-12-25T06:51:54.463Z,8.45
2017-12-25T06:54:23.766Z,9.60
2017-12-25T06:56:51.913Z,8.27
2017-12-25T06:59:21.107Z,7.28
2017-12-25T07:01:52.185Z,7.40
2017-12-25T07:04:20.448Z,7.32
2017-12-25T07:06:48.629Z,7.28
2017-12-25T07:09:17.013Z,6.75
2017-12-25T07:11:45.226Z,7.60
2017-12-25T07:14:13.551Z,7.00
2017-12-25T07:16:41.716Z,8.27
2017-12-25T07:19:11.162Z,6.93
2017-12-25T07:21:39.460Z,9.65
2017-12-25T07:24:07.690Z,10.38
2017-12-25T07:26:35.872Z,6.85
2017-12-25T07:29:04.041Z,7.65
2017-12-25T07:31:32.242Z,8.25
2017-12-25T07:34:01.399Z,8.38
2017-12-25T07:36:29.793Z,6.75
2017-12-25T07:39:09.707Z,7.12
2017-12-25T07:41:38.643Z,6.10
2017-12-25T07:44:08.850Z,7.20
2017-12-25T07:46:37.002Z,5.93
2017-12-25T07:49:05.233Z,7.10
2017-12-25T07:51:34.137Z,7.32
2017-12-25T07:54:03.374Z,7.62
2017-12-25T07:56:31.743Z,7.43
2017-12-25T07:59:01.586Z,7.53
2017-12-25T08:01:30.227Z,6.72
2017-12-25T08:03:58.580Z,7.47
2017-12-25T08:06:27.549Z,7.97
2017-12-25T08:08:56.008Z,7.25
2017-12-25T08:11:24.434Z,7.57
2017-12-25T08:13:53.483Z,8.80
2017-12-25T08:16:21.762Z,7.82
2017-12-25T08:18:49.970Z,8.02
2017-12-25T08:21:18.122Z,8.77
2017-12-25T08:27:12.704Z,9.50
2017-12-25T08:30:02.578Z,10.65
2017-12-25T08:33:00.376Z,8.32
2017-12-25T08:35:30.501Z,8.75
2017-12-25T08:38:00.018Z,7.03
2017-12-25T08:40:28.946Z,7.28
2017-12-25T08:42:57.188Z,9.50
2017-12-25T08:45:25.405Z,7.82
2017-12-25T08:47:53.722Z,9.75
2017-12-25T08:50:23.228Z,7.65
2017-12-25T08:52:53.017Z,8.88
2017-12-25T08:55:21.934Z,9.80
2017-12-25T08:57:50.154Z,9.45
2017-12-25T09:00:19.801Z,10.30
2017-12-25T09:02:48.611Z,11.70
2017-12-25T09:05:18.175Z,11.75
2017-12-25T09:07:46.347Z,10.15
2017-12-25T09:10:17.825Z,9.65
2017-12-25T09:12:46.926Z,9.40
2017-12-25T09:15:15.091Z,9.25
2017-12-25T09:17:43.986Z,8.95
2017-12-25T09:20:12.387Z,10.02
2017-12-25T09:22:41.359Z,10.55
2017-12-25T09:25:15.722Z,8.80
2017-12-25T09:27:44.682Z,8.98
2017-12-25T09:30:15.253Z,8.20
2017-12-25T09:32:43.465Z,8.63
2017-12-25T09:35:13.211Z,9.60
2017-12-25T09:37:42.189Z,8.93
2017-12-25T09:40:10.992Z,9.15
2017-12-25T09:42:39.928Z,7.85
2017-12-25T09:45:08.969Z,8.00
2017-12-25T09:47:37.140Z,9.65
2017-12-25T09:50:06.521Z,9.15
2017-12-25T09:52:36.366Z,8.75
2017-12-25T09:55:05.300Z,8.00
2017-12-25T09:57:33.998Z,9.98
2017-12-25T10:00:03.986Z,9.75
2017-12-25T10:02:32.154Z,13.40
2017-12-25T10:05:01.570Z,9.05
2017-12-25T10:07:29.886Z,9.90
2017-12-25T10:09:58.046Z,10.20
2017-12-25T10:12:28.802Z,8.63
2017-12-25T10:15:02.716Z,7.50
2017-12-25T10:17:31.427Z,8.05
2017-12-25T10:19:59.610Z,10.50
2017-12-25T10:22:28.583Z,10.50
2017-12-25T10:24:56.834Z,11.15
2017-12-25T10:27:25.009Z,11.00
2017-12-25T10:29:53.179Z,9.90
2017-12-25T10:32:22.424Z,10.40
2017-12-25T10:34:50.677Z,9.27
2017-12-25T10:37:18.842Z,9.43
2017-12-25T10:39:47.053Z,7.57
2017-12-25T10:42:15.936Z,8.48
2017-12-25T10:44:46.768Z,8.13
2017-12-25T10:47:16.116Z,8.07
2017-12-25T10:49:45.117Z,7.55
2017-12-25T10:52:14.288Z,7.20
2017-12-25T10:54:42.500Z,7.35
2017-12-25T10:57:10.699Z,8.23
2017-12-25T10:59:39.785Z,7.28
2017-12-25T11:02:07.935Z,7.65
2017-12-25T11:04:37.002Z,7.90
2017-12-25T11:07:05.185Z,8.10
2017-12-25T11:09:33.405Z,8.18
2017-12-25T11:12:02.585Z,8.20
2017-12-25T11:14:31.579Z,6.82
2017-12-25T11:17:00.098Z,8.35
2017-12-25T11:19:28.265Z,7.30
2017-12-25T11:21:56.466Z,9.15
2017-12-25T11:24:24.706Z,8.10
2017-12-25T11:26:53.855Z,7.15
2017-12-25T11:29:24.049Z,6.57
2017-12-25T11:31:52.210Z,6.05
2017-12-25T11:34:20.484Z,7.82
2017-12-25T11:36:48.744Z,7.62
2017-12-25T11:39:16.924Z,6.50
2017-12-25T11:41:45.062Z,7.10
2017-12-25T11:44:13.364Z,6.82
2017-12-25T11:46:41.516Z,7.30
2017-12-25T11:49:10.466Z,6.70
2017-12-25T11:51:38.660Z,6.40
2017-12-25T11:54:06.890Z,8.23
2017-12-25T11:56:35.024Z,5.65
2017-12-25T11:59:04.572Z,6.05
2017-12-25T12:01:32.718Z,6.15
2017-12-25T12:04:06.033Z,9.00
2017-12-25T12:06:34.210Z,5.10
2017-12-25T12:09:04.585Z,5.47
2017-12-25T12:11:32.713Z,6.53
2017-12-25T12:14:05.531Z,6.15
2017-12-25T12:16:34.498Z,5.85
2017-12-25T12:19:05.709Z,6.00
2017-12-25T12:21:33.880Z,5.37
2017-12-25T12:24:02.860Z,5.65
2017-12-25T12:26:31.164Z,5.97
2017-12-25T12:28:59.308Z,5.30
2017-12-25T12:31:27.470Z,5.53
2017-12-25T12:33:56.577Z,6.40
2017-12-25T12:36:25.495Z,5.40
2017-12-25T12:38:54.473Z,4.53
2017-12-25T12:41:22.922Z,6.40
2017-12-25T12:43:51.240Z,5.40
2017-12-25T12:46:19.394Z,6.22
2017-12-25T12:48:48.309Z,5.28
2017-12-25T12:51:16.904Z,6.40
2017-12-25T12:53:51.633Z,4.62
2017-12-25T12:56:19.797Z,5.87
2017-12-25T12:58:48.075Z,5.50
2017-12-25T13:01:17.880Z,6.40
2017-12-25T13:03:46.769Z,5.05
2017-12-25T13:06:14.914Z,4.35
2017-12-25T13:08:43.075Z,5.55
2017-12-25T13:11:17.525Z,4.97
2017-12-25T13:13:53.576Z,5.55
2017-12-25T13:16:23.431Z,5.03
2017-12-25T13:18:52.051Z,5.10
2017-12-25T13:21:20.255Z,5.60
2017-12-25T13:23:49.115Z,4.80
2017-12-25T13:26:23.224Z,4.32
2017-12-25T13:28:51.993Z,5.20
2017-12-25T13:31:20.803Z,5.85
2017-12-25T13:33:52.400Z,4.22
2017-12-25T13:36:22.533Z,4.80
2017-12-25T13:38:58.337Z,4.80
2017-12-25T13:41:26.556Z,5.18
2017-12-25T13:44:02.780Z,4.50
2017-12-25T13:46:31.189Z,3.97
2017-12-25T13:48:59.388Z,4.90
2017-12-25T13:51:28.332Z,4.87
2017-12-25T13:54:00.121Z,4.80
2017-12-25T13:56:30.039Z,3.92
2017-12-25T13:59:01.628Z,4.68
2017-12-25T14:01:29.790Z,4.30
2017-12-25T14:04:01.427Z,4.50
2017-12-25T14:06:30.970Z,4.32
2017-12-25T14:08:59.450Z,3.87
2017-12-25T14:11:27.598Z,4.57
2017-12-25T14:13:56.764Z,4.25
2017-12-25T14:16:25.811Z,5.40
2017-12-25T14:18:53.956Z,6.60
2017-12-25T14:21:22.185Z,6.10
2017-12-25T14:23:58.775Z,5.47
2017-12-25T14:26:29.201Z,5.15
2017-12-25T14:28:58.131Z,4.80
2017-12-25T14:31:27.273Z,4.80
2017-12-25T14:33:56.292Z,4.70
2017-12-25T14:36:26.013Z,4.75
2017-12-25T14:38:54.195Z,4.70
2017-12-25T14:41:23.873Z,4.65
2017-12-25T14:43:52.888Z,3.45
2017-12-25T14:46:21.328Z,3.45
2017-12-25T14:48:49.651Z,3.12
2017-12-25T14:51:17.806Z,3.45
2017-12-25T14:53:46.014Z,3.67
2017-12-25T14:56:14.151Z,5.20
2017-12-25T14:58:42.399Z,3.37
2017-12-25T15:01:11.787Z,3.12
2017-12-25T15:03:45.278Z,3.70
2017-12-25T15:06:13.528Z,4.25
2017-12-25T15:08:41.911Z,4.12
2017-12-25T15:11:11.283Z,3.45
2017-12-25T15:13:42.247Z,5.53
2017-12-25T15:16:11.417Z,4.55
2017-12-25T15:18:40.420Z,3.92
2017-12-25T15:21:08.574Z,3.37
2017-12-25T15:23:36.776Z,5.43
2017-12-25T15:26:05.742Z,4.65
2017-12-25T15:28:34.772Z,5.00
2017-12-25T15:31:03.063Z,4.00
2017-12-25T15:33:31.333Z,4.07
2017-12-25T15:36:00.728Z,2.85
2017-12-25T15:38:30.418Z,3.22
2017-12-25T15:40:59.569Z,4.18
2017-12-25T15:43:28.772Z,3.53
2017-12-25T15:45:57.852Z,4.70
2017-12-25T15:48:28.835Z,2.95
2017-12-25T15:50:58.698Z,2.87
2017-12-25T15:53:27.164Z,3.22
2017-12-25T15:56:01.882Z,3.95
2017-12-25T15:58:31.878Z,6.03
2017-12-25T16:01:00.155Z,7.10
2017-12-25T16:03:28.743Z,5.93
2017-12-25T16:05:56.940Z,5.07
2017-12-25T16:08:25.165Z,5.53
2017-12-25T16:10:54.007Z,5.35
2017-12-25T16:13:23.392Z,3.75
2017-12-25T16:15:52.477Z,4.15
2017-12-25T16:18:22.005Z,4.87
2017-12-25T16:20:50.288Z,6.45
2017-12-25T16:23:19.214Z,5.97
2017-12-25T16:25:48.318Z,8.27
2017-12-25T16:28:18.364Z,4.87
2017-12-25T16:30:47.619Z,7.35
2017-12-25T16:33:17.855Z,4.60
2017-12-25T16:35:46.030Z,3.42
2017-12-25T16:38:14.630Z,3.92
2017-12-25T16:40:42.809Z,3.92
2017-12-25T16:43:15.049Z,4.18
2017-12-25T16:45:43.202Z,5.15
2017-12-25T16:48:11.469Z,4.85
2017-12-25T16:50:40.694Z,6.00
2017-12-25T16:53:10.938Z,5.00
2017-12-25T16:55:39.890Z,5.20
2017-12-25T16:58:09.380Z,6.12
2017-12-25T17:00:37.609Z,6.75
2017-12-25T17:03:15.221Z,5.30
2017-12-25T17:05:43.731Z,5.78
2017-12-25T17:08:15.699Z,4.20
2017-12-25T17:10:45.082Z,4.45
2017-12-25T17:13:17.850Z,4.62
2017-12-25T17:15:46.827Z,3.75
2017-12-25T17:18:15.088Z,4.05
2017-12-25T17:20:43.385Z,4.28
2017-12-25T17:23:15.601Z,3.30
2017-12-25T17:25:44.677Z,3.58
2017-12-25T17:28:14.449Z,3.53
2017-12-25T17:30:43.439Z,6.07
2017-12-25T17:33:12.369Z,5.10
2017-12-25T17:35:40.749Z,5.22
2017-12-25T17:38:10.539Z,3.95
2017-12-25T17:40:38.776Z,5.25
2017-12-25T17:43:08.538Z,4.12
2017-12-25T17:45:38.288Z,5.62
2017-12-25T17:48:06.765Z,5.40
2017-12-25T17:50:36.850Z,5.80
2017-12-25T17:53:06.915Z,6.75
2017-12-25T17:55:35.112Z,7.62
2017-12-25T17:58:04.040Z,7.60
2017-12-25T18:00:33.164Z,6.10
2017-12-25T18:03:03.306Z,6.50
2017-12-25T18:05:35.317Z,6.78
2017-12-25T18:08:04.608Z,4.37
2017-12-25T18:10:35.270Z,3.95
2017-12-25T18:13:07.318Z,4.10
2017-12-25T18:15:38.694Z,6.05
2017-12-25T18:18:07.310Z,5.43
2017-12-25T18:20:36.566Z,5.72
2017-12-25T18:23:04.936Z,5.65
2017-12-25T18:25:34.378Z,6.60
2017-12-25T18:28:02.543Z,7.22
2017-12-25T18:30:31.281Z,5.60
2017-12-25T18:33:00.337Z,5.95
2017-12-25T18:35:30.358Z,6.90
2017-12-25T18:37:59.963Z,10.73
2017-12-25T18:40:30.437Z,11.12
2017-12-25T18:42:58.679Z,15.77
2017-12-25T18:45:27.881Z,12.88
2017-12-25T18:47:57.849Z,10.25
2017-12-25T18:50:26.083Z,9.30
2017-12-25T18:52:54.272Z,11.45
2017-12-25T18:55:22.490Z,10.70
2017-12-25T18:57:52.512Z,12.30
2017-12-25T19:00:21.723Z,13.52
2017-12-25T19:02:51.572Z,11.77
2017-12-25T19:05:21.216Z,12.55
2017-12-25T19:07:49.383Z,12.20
2017-12-25T19:10:17.587Z,12.85
2017-12-25T19:12:46.711Z,16.52
2017-12-25T19:15:16.640Z,17.02
2017-12-25T19:17:44.802Z,15.25
2017-12-25T19:20:12.961Z,15.55
2017-12-25T19:22:42.697Z,16.02
2017-12-25T19:25:10.906Z,8.57
2017-12-25T19:27:39.176Z,8.80
2017-12-25T19:30:07.385Z,8.30
2017-12-25T19:32:37.785Z,13.40
2017-12-25T19:35:06.367Z,12.05
2017-12-25T19:37:35.976Z,10.55
2017-12-25T19:40:04.894Z,9.77
2017-12-25T19:42:33.620Z,5.80
2017-12-25T19:45:02.767Z,7.30
2017-12-25T19:47:33.779Z,6.30
2017-12-25T19:50:02.754Z,8.07
2017-12-25T19:52:31.995Z,8.32
2017-12-25T19:55:01.130Z,6.75
2017-12-25T19:57:29.307Z,7.53
2017-12-25T19:59:59.151Z,6.68
2017-12-25T20:02:29.388Z,6.97
2017-12-25T20:04:58.434Z,8.55
2017-12-25T20:07:27.950Z,7.28
2017-12-25T20:09:56.932Z,8.40
2017-12-25T20:12:25.226Z,7.93
2017-12-25T20:14:56.015Z,7.57
2017-12-25T20:17:25.602Z,9.95
2017-12-25T20:19:54.138Z,9.35
2017-12-25T20:22:23.209Z,7.95
2017-12-25T20:24:51.534Z,6.65
2017-12-25T20:27:21.590Z,6.80
2017-12-25T20:29:51.562Z,6.87
2017-12-25T20:34:54.745Z,8.25
2017-12-25T20:37:23.875Z,7.32
2017-12-25T20:42:53.604Z,4.35
2017-12-25T20:45:26.070Z,6.05
2017-12-25T20:47:54.955Z,11.65
2017-12-25T20:50:25.331Z,6.65
2017-12-25T20:52:54.370Z,5.40
2017-12-25T20:55:24.175Z,5.32
2017-12-25T20:57:59.437Z,4.37
2017-12-25T21:00:28.634Z,4.05
2017-12-25T21:02:56.842Z,4.90
2017-12-25T21:05:26.915Z,4.00
2017-12-25T21:07:56.277Z,4.37
2017-12-25T21:10:27.450Z,4.18
2017-12-25T21:12:58.082Z,4.03
2017-12-25T21:15:26.673Z,5.28
2017-12-25T21:17:54.893Z,3.35
2017-12-25T21:20:24.277Z,6.18
2017-12-25T21:22:57.622Z,8.88
2017-12-25T21:25:27.160Z,11.32
2017-12-25T21:27:56.255Z,14.45
2017-12-25T21:30:25.367Z,12.07
2017-12-25T21:32:56.275Z,9.63
2017-12-25T21:35:25.194Z,11.07
2017-12-25T21:37:54.269Z,11.60
2017-12-25T21:40:23.382Z,5.18
2017-12-25T21:42:52.243Z,3.85
2017-12-25T21:45:20.866Z,3.55
2017-12-25T21:47:49.606Z,4.70
2017-12-25T21:50:21.662Z,4.47
2017-12-25T21:52:50.154Z,4.30
2017-12-25T21:55:18.636Z,3.78
2017-12-25T21:57:47.587Z,3.87
2017-12-25T22:00:17.291Z,3.40
2017-12-25T22:02:46.220Z,3.40
2017-12-25T22:05:14.527Z,4.70
2017-12-25T22:07:42.745Z,9.43
2017-12-25T22:10:11.402Z,7.95
2017-12-25T22:12:40.429Z,6.53
2017-12-25T22:15:09.339Z,6.75
2017-12-25T22:17:39.011Z,5.65
2017-12-25T22:20:07.238Z,5.60
2017-12-25T22:22:36.671Z,6.45
2017-12-25T22:25:05.446Z,6.80
2017-12-25T22:27:34.391Z,7.30
2017-12-25T22:30:04.379Z,6.85
2017-12-25T22:32:34.532Z,3.22
2017-12-25T22:35:02.718Z,3.20
2017-12-25T22:37:31.957Z,3.92
2017-12-25T22:40:01.751Z,3.37
2017-12-25T22:42:30.202Z,2.95
2017-12-25T22:44:59.125Z,3.58
2017-12-25T22:47:29.656Z,3.55
2017-12-25T22:49:58.119Z,3.22
2017-12-25T22:52:26.820Z,2.90
2017-12-25T22:55:00.405Z,3.40
2017-12-25T22:57:30.027Z,3.47
2017-12-25T22:59:59.845Z,3.90
2017-12-25T23:02:30.305Z,5.62
2017-12-25T23:04:58.507Z,6.12
2017-12-25T23:07:26.721Z,4.60
2017-12-25T23:09:54.866Z,6.45
2017-12-25T23:12:23.437Z,4.82
2017-12-25T23:14:52.342Z,5.22
2017-12-25T23:17:21.161Z,6.00
2017-12-25T23:19:49.994Z,6.53
2017-12-25T23:22:18.214Z,5.80
2017-12-25T23:24:48.271Z,8.07
2017-12-25T23:27:16.538Z,7.90
2017-12-25T23:29:45.433Z,9.30
2017-12-25T23:32:13.891Z,11.63
2017-12-25T23:34:42.046Z,11.88
2017-12-25T23:37:11.069Z,14.05
2017-12-25T23:39:39.253Z,10.48
2017-12-25T23:42:08.595Z,9.65
2017-12-25T23:44:37.009Z,10.40
2017-12-25T23:47:06.403Z,8.60
2017-12-25T23:49:34.631Z,8.65
2017-12-25T23:52:05.295Z,8.77
2017-12-25T23:54:33.684Z,4.93
2017-12-25T23:57:01.898Z,5.50
2017-12-25T23:59:30.065Z,4.05
